sensor_id;sensor_type;location;lat;lon;timestamp;P1;durP1;ratioP1;P2;durP2;ratioP2
38379;SDS011;38377;47.418;18.882;2023-07-28T00:00:25;4.75;;;2.33;;
38379;SDS011;38377;47.418;18.882;2023-07-28T00:02:51;3.75;;;2.08;;
38379;SDS011;38377;47.418;18.882;2023-07-28T00:05:16;2.80;;;2.50;;
38379;SDS011;38377;47.418;18.882;2023-07-28T00:07:42;3.05;;;2.30;;
38379;SDS011;38377;47.418;18.882;2023-07-28T00:10:08;2.70;;;2.20;;
38379;SDS011;38377;47.418;18.882;2023-07-28T00:12:34;3.25;;;2.00;;
38379;SDS011;38377;47.418;18.882;2023-07-28T00:14:59;2.63;;;2.20;;
38379;SDS011;38377;47.418;18.882;2023-07-28T00:17:25;2.40;;;1.95;;
38379;SDS011;38377;47.418;18.882;2023-07-28T00:19:51;3.03;;;2.03;;
38379;SDS011;38377;47.418;18.882;2023-07-28T00:22:16;4.68;;;2.95;;
38379;SDS011;38377;47.418;18.882;2023-07-28T00:24:42;3.03;;;2.22;;
38379;SDS011;38377;47.418;18.882;2023-07-28T00:27:08;2.38;;;2.10;;
38379;SDS011;38377;47.418;18.882;2023-07-28T00:29:33;2.78;;;2.30;;
38379;SDS011;38377;47.418;18.882;2023-07-28T00:31:59;3.42;;;2.20;;
38379;SDS011;38377;47.418;18.882;2023-07-28T00:34:25;3.17;;;1.95;;
38379;SDS011;38377;47.418;18.882;2023-07-28T00:36:50;3.42;;;2.50;;
38379;SDS011;38377;47.418;18.882;2023-07-28T00:39:16;3.67;;;2.10;;
38379;SDS011;38377;47.418;18.882;2023-07-28T00:41:42;2.58;;;2.20;;
38379;SDS011;38377;47.418;18.882;2023-07-28T00:44:08;2.85;;;2.30;;
38379;SDS011;38377;47.418;18.882;2023-07-28T00:46:33;3.03;;;2.10;;
38379;SDS011;38377;47.418;18.882;2023-07-28T00:48:59;3.45;;;2.30;;
38379;SDS011;38377;47.418;18.882;2023-07-28T00:51:26;2.80;;;2.20;;
38379;SDS011;38377;47.418;18.882;2023-07-28T00:53:52;3.92;;;2.35;;
38379;SDS011;38377;47.418;18.882;2023-07-28T00:56:18;2.53;;;2.25;;
38379;SDS011;38377;47.418;18.882;2023-07-28T00:58:45;3.60;;;2.40;;
38379;SDS011;38377;47.418;18.882;2023-07-28T01:01:11;2.65;;;2.28;;
38379;SDS011;38377;47.418;18.882;2023-07-28T01:03:37;3.72;;;2.47;;
38379;SDS011;38377;47.418;18.882;2023-07-28T01:11:22;3.55;;;2.58;;
38379;SDS011;38377;47.418;18.882;2023-07-28T01:13:48;2.70;;;2.17;;
38379;SDS011;38377;47.418;18.882;2023-07-28T01:16:14;4.25;;;2.30;;
38379;SDS011;38377;47.418;18.882;2023-07-28T01:18:40;2.60;;;2.13;;
38379;SDS011;38377;47.418;18.882;2023-07-28T01:21:06;2.88;;;2.50;;
38379;SDS011;38377;47.418;18.882;2023-07-28T01:26:14;2.88;;;2.47;;
38379;SDS011;38377;47.418;18.882;2023-07-28T01:28:41;3.58;;;2.25;;
38379;SDS011;38377;47.418;18.882;2023-07-28T01:31:09;2.90;;;2.30;;
38379;SDS011;38377;47.418;18.882;2023-07-28T01:33:35;3.60;;;2.33;;
38379;SDS011;38377;47.418;18.882;2023-07-28T01:36:01;2.88;;;2.20;;
38379;SDS011;38377;47.418;18.882;2023-07-28T01:38:27;4.00;;;2.67;;
38379;SDS011;38377;47.418;18.882;2023-07-28T01:40:53;3.60;;;2.60;;
38379;SDS011;38377;47.418;18.882;2023-07-28T01:43:19;2.72;;;2.38;;
38379;SDS011;38377;47.418;18.882;2023-07-28T01:45:45;3.42;;;2.40;;
38379;SDS011;38377;47.418;18.882;2023-07-28T01:48:11;2.58;;;2.10;;
38379;SDS011;38377;47.418;18.882;2023-07-28T01:50:37;3.13;;;2.30;;
38379;SDS011;38377;47.418;18.882;2023-07-28T01:53:06;3.28;;;2.60;;
38379;SDS011;38377;47.418;18.882;2023-07-28T01:55:32;2.67;;;2.47;;
38379;SDS011;38377;47.418;18.882;2023-07-28T01:57:59;2.95;;;2.50;;
38379;SDS011;38377;47.418;18.882;2023-07-28T02:00:26;2.53;;;2.33;;
38379;SDS011;38377;47.418;18.882;2023-07-28T02:02:52;3.35;;;2.38;;
38379;SDS011;38377;47.418;18.882;2023-07-28T02:05:19;2.97;;;2.15;;
38379;SDS011;38377;47.418;18.882;2023-07-28T02:07:45;4.03;;;2.50;;
38379;SDS011;38377;47.418;18.882;2023-07-28T02:10:11;2.53;;;2.33;;
38379;SDS011;38377;47.418;18.882;2023-07-28T02:12:37;3.67;;;2.42;;
38379;SDS011;38377;47.418;18.882;2023-07-28T02:15:06;3.55;;;2.42;;
38379;SDS011;38377;47.418;18.882;2023-07-28T02:17:32;3.70;;;2.35;;
38379;SDS011;38377;47.418;18.882;2023-07-28T02:19:59;3.85;;;2.22;;
38379;SDS011;38377;47.418;18.882;2023-07-28T02:22:26;3.25;;;2.30;;
38379;SDS011;38377;47.418;18.882;2023-07-28T02:24:52;2.83;;;2.40;;
38379;SDS011;38377;47.418;18.882;2023-07-28T02:27:17;4.13;;;2.55;;
38379;SDS011;38377;47.418;18.882;2023-07-28T02:29:43;2.80;;;2.50;;
38379;SDS011;38377;47.418;18.882;2023-07-28T02:32:10;2.65;;;2.30;;
38379;SDS011;38377;47.418;18.882;2023-07-28T02:34:36;3.33;;;2.95;;
38379;SDS011;38377;47.418;18.882;2023-07-28T02:37:02;4.03;;;2.40;;
38379;SDS011;38377;47.418;18.882;2023-07-28T02:39:27;2.75;;;2.40;;
38379;SDS011;38377;47.418;18.882;2023-07-28T02:41:53;4.13;;;2.88;;
38379;SDS011;38377;47.418;18.882;2023-07-28T02:44:19;3.55;;;2.42;;
38379;SDS011;38377;47.418;18.882;2023-07-28T02:46:45;3.13;;;2.47;;
38379;SDS011;38377;47.418;18.882;2023-07-28T02:49:10;2.75;;;2.30;;
38379;SDS011;38377;47.418;18.882;2023-07-28T02:51:36;4.03;;;2.70;;
38379;SDS011;38377;47.418;18.882;2023-07-28T02:54:02;3.47;;;2.55;;
38379;SDS011;38377;47.418;18.882;2023-07-28T02:56:28;3.47;;;2.53;;
38379;SDS011;38377;47.418;18.882;2023-07-28T02:58:54;5.25;;;2.72;;
38379;SDS011;38377;47.418;18.882;2023-07-28T03:01:21;3.28;;;2.63;;
38379;SDS011;38377;47.418;18.882;2023-07-28T03:03:46;3.05;;;2.47;;
38379;SDS011;38377;47.418;18.882;2023-07-28T03:06:12;2.50;;;2.30;;
38379;SDS011;38377;47.418;18.882;2023-07-28T03:08:38;3.20;;;2.90;;
38379;SDS011;38377;47.418;18.882;2023-07-28T03:11:03;4.00;;;2.30;;
38379;SDS011;38377;47.418;18.882;2023-07-28T03:13:29;3.45;;;2.60;;
38379;SDS011;38377;47.418;18.882;2023-07-28T03:15:55;3.28;;;2.60;;
38379;SDS011;38377;47.418;18.882;2023-07-28T03:18:20;3.35;;;2.97;;
38379;SDS011;38377;47.418;18.882;2023-07-28T03:20:46;3.25;;;2.50;;
38379;SDS011;38377;47.418;18.882;2023-07-28T03:23:12;3.17;;;2.50;;
38379;SDS011;38377;47.418;18.882;2023-07-28T03:25:38;4.00;;;2.45;;
38379;SDS011;38377;47.418;18.882;2023-07-28T03:28:04;3.33;;;2.45;;
38379;SDS011;38377;47.418;18.882;2023-07-28T03:30:29;3.78;;;2.63;;
38379;SDS011;38377;47.418;18.882;2023-07-28T03:32:55;3.85;;;2.55;;
38379;SDS011;38377;47.418;18.882;2023-07-28T03:35:21;2.88;;;2.58;;
38379;SDS011;38377;47.418;18.882;2023-07-28T03:37:47;4.35;;;3.30;;
38379;SDS011;38377;47.418;18.882;2023-07-28T03:40:13;4.20;;;2.65;;
38379;SDS011;38377;47.418;18.882;2023-07-28T03:42:39;3.20;;;2.47;;
38379;SDS011;38377;47.418;18.882;2023-07-28T03:45:05;3.22;;;2.30;;
38379;SDS011;38377;47.418;18.882;2023-07-28T03:47:31;5.25;;;3.10;;
38379;SDS011;38377;47.418;18.882;2023-07-28T03:49:56;4.30;;;3.00;;
38379;SDS011;38377;47.418;18.882;2023-07-28T03:52:22;3.05;;;2.70;;
38379;SDS011;38377;47.418;18.882;2023-07-28T03:54:47;3.22;;;2.53;;
38379;SDS011;38377;47.418;18.882;2023-07-28T03:57:13;4.43;;;2.60;;
38379;SDS011;38377;47.418;18.882;2023-07-28T03:59:39;3.67;;;2.95;;
38379;SDS011;38377;47.418;18.882;2023-07-28T04:02:04;3.47;;;2.25;;
38379;SDS011;38377;47.418;18.882;2023-07-28T04:04:30;4.18;;;2.80;;
38379;SDS011;38377;47.418;18.882;2023-07-28T04:06:56;3.85;;;2.63;;
38379;SDS011;38377;47.418;18.882;2023-07-28T04:09:22;4.85;;;2.95;;
38379;SDS011;38377;47.418;18.882;2023-07-28T04:11:48;3.92;;;2.38;;
38379;SDS011;38377;47.418;18.882;2023-07-28T04:14:14;3.15;;;2.30;;
38379;SDS011;38377;47.418;18.882;2023-07-28T04:16:39;3.88;;;2.58;;
38379;SDS011;38377;47.418;18.882;2023-07-28T04:19:05;3.08;;;2.28;;
38379;SDS011;38377;47.418;18.882;2023-07-28T04:21:31;3.17;;;2.88;;
38379;SDS011;38377;47.418;18.882;2023-07-28T04:23:57;4.57;;;2.65;;
38379;SDS011;38377;47.418;18.882;2023-07-28T04:26:23;5.13;;;2.65;;
38379;SDS011;38377;47.418;18.882;2023-07-28T04:28:49;3.35;;;2.50;;
38379;SDS011;38377;47.418;18.882;2023-07-28T04:31:15;3.17;;;2.60;;
38379;SDS011;38377;47.418;18.882;2023-07-28T04:33:41;4.80;;;2.55;;
38379;SDS011;38377;47.418;18.882;2023-07-28T04:36:08;3.70;;;2.83;;
38379;SDS011;38377;47.418;18.882;2023-07-28T04:38:34;3.25;;;2.00;;
38379;SDS011;38377;47.418;18.882;2023-07-28T04:41:00;3.05;;;2.38;;
38379;SDS011;38377;47.418;18.882;2023-07-28T04:43:26;3.63;;;2.42;;
38379;SDS011;38377;47.418;18.882;2023-07-28T04:45:53;2.63;;;2.05;;
38379;SDS011;38377;47.418;18.882;2023-07-28T04:48:18;2.95;;;2.40;;
38379;SDS011;38377;47.418;18.882;2023-07-28T04:50:44;2.85;;;2.50;;
38379;SDS011;38377;47.418;18.882;2023-07-28T04:53:10;4.88;;;2.75;;
38379;SDS011;38377;47.418;18.882;2023-07-28T04:55:36;4.30;;;2.88;;
38379;SDS011;38377;47.418;18.882;2023-07-28T04:58:02;3.67;;;2.40;;
38379;SDS011;38377;47.418;18.882;2023-07-28T05:00:27;3.72;;;2.22;;
38379;SDS011;38377;47.418;18.882;2023-07-28T05:02:53;3.97;;;2.47;;
38379;SDS011;38377;47.418;18.882;2023-07-28T05:05:19;4.10;;;2.58;;
38379;SDS011;38377;47.418;18.882;2023-07-28T05:07:45;4.05;;;2.60;;
38379;SDS011;38377;47.418;18.882;2023-07-28T05:10:10;4.25;;;2.90;;
38379;SDS011;38377;47.418;18.882;2023-07-28T05:12:36;3.75;;;3.03;;
38379;SDS011;38377;47.418;18.882;2023-07-28T05:15:02;2.45;;;2.13;;
38379;SDS011;38377;47.418;18.882;2023-07-28T05:17:29;6.20;;;3.17;;
38379;SDS011;38377;47.418;18.882;2023-07-28T05:19:55;5.47;;;3.17;;
38379;SDS011;38377;47.418;18.882;2023-07-28T05:22:20;4.15;;;2.75;;
38379;SDS011;38377;47.418;18.882;2023-07-28T05:24:46;4.07;;;2.58;;
38379;SDS011;38377;47.418;18.882;2023-07-28T05:27:12;4.63;;;2.50;;
38379;SDS011;38377;47.418;18.882;2023-07-28T05:29:37;3.75;;;2.50;;
38379;SDS011;38377;47.418;18.882;2023-07-28T05:32:03;5.25;;;2.63;;
38379;SDS011;38377;47.418;18.882;2023-07-28T05:34:31;3.85;;;2.35;;
38379;SDS011;38377;47.418;18.882;2023-07-28T05:36:56;2.65;;;2.33;;
38379;SDS011;38377;47.418;18.882;2023-07-28T05:39:22;4.50;;;2.25;;
38379;SDS011;38377;47.418;18.882;2023-07-28T05:41:48;3.55;;;2.40;;
38379;SDS011;38377;47.418;18.882;2023-07-28T05:44:14;5.22;;;2.28;;
38379;SDS011;38377;47.418;18.882;2023-07-28T05:46:39;8.43;;;2.70;;
38379;SDS011;38377;47.418;18.882;2023-07-28T05:49:05;3.15;;;2.10;;
38379;SDS011;38377;47.418;18.882;2023-07-28T05:51:31;4.57;;;2.33;;
38379;SDS011;38377;47.418;18.882;2023-07-28T05:53:56;2.97;;;2.35;;
38379;SDS011;38377;47.418;18.882;2023-07-28T05:56:22;6.72;;;3.28;;
38379;SDS011;38377;47.418;18.882;2023-07-28T05:58:48;10.77;;;5.07;;
38379;SDS011;38377;47.418;18.882;2023-07-28T06:01:15;11.63;;;7.88;;
38379;SDS011;38377;47.418;18.882;2023-07-28T06:03:40;12.20;;;7.68;;
38379;SDS011;38377;47.418;18.882;2023-07-28T06:06:06;7.78;;;5.68;;
38379;SDS011;38377;47.418;18.882;2023-07-28T06:08:32;14.30;;;7.40;;
38379;SDS011;38377;47.418;18.882;2023-07-28T06:10:59;9.10;;;4.97;;
38379;SDS011;38377;47.418;18.882;2023-07-28T06:13:24;11.23;;;7.45;;
38379;SDS011;38377;47.418;18.882;2023-07-28T06:15:52;5.22;;;4.05;;
38379;SDS011;38377;47.418;18.882;2023-07-28T06:18:19;3.33;;;2.63;;
38379;SDS011;38377;47.418;18.882;2023-07-28T06:20:47;4.78;;;3.28;;
38379;SDS011;38377;47.418;18.882;2023-07-28T06:23:13;3.60;;;2.70;;
38379;SDS011;38377;47.418;18.882;2023-07-28T06:25:39;4.32;;;2.90;;
38379;SDS011;38377;47.418;18.882;2023-07-28T06:28:11;3.75;;;3.10;;
38379;SDS011;38377;47.418;18.882;2023-07-28T06:30:38;2.80;;;2.50;;
38379;SDS011;38377;47.418;18.882;2023-07-28T06:33:07;4.63;;;2.08;;
38379;SDS011;38377;47.418;18.882;2023-07-28T06:35:33;2.83;;;2.15;;
38379;SDS011;38377;47.418;18.882;2023-07-28T06:37:59;8.75;;;2.95;;
38379;SDS011;38377;47.418;18.882;2023-07-28T06:40:26;3.67;;;2.30;;
38379;SDS011;38377;47.418;18.882;2023-07-28T06:42:52;2.75;;;2.13;;
38379;SDS011;38377;47.418;18.882;2023-07-28T06:45:17;2.65;;;1.90;;
38379;SDS011;38377;47.418;18.882;2023-07-28T06:47:43;2.53;;;1.80;;
38379;SDS011;38377;47.418;18.882;2023-07-28T06:50:10;5.30;;;2.22;;
38379;SDS011;38377;47.418;18.882;2023-07-28T06:52:36;2.90;;;1.80;;
38379;SDS011;38377;47.418;18.882;2023-07-28T06:55:02;3.95;;;1.85;;
38379;SDS011;38377;47.418;18.882;2023-07-28T06:57:28;4.68;;;2.10;;
38379;SDS011;38377;47.418;18.882;2023-07-28T06:59:55;4.15;;;2.03;;
38379;SDS011;38377;47.418;18.882;2023-07-28T07:02:21;3.75;;;2.30;;
38379;SDS011;38377;47.418;18.882;2023-07-28T07:04:47;2.72;;;1.90;;
38379;SDS011;38377;47.418;18.882;2023-07-28T07:07:12;2.47;;;1.88;;
38379;SDS011;38377;47.418;18.882;2023-07-28T07:09:38;2.17;;;1.98;;
38379;SDS011;38377;47.418;18.882;2023-07-28T07:12:04;2.30;;;1.77;;
38379;SDS011;38377;47.418;18.882;2023-07-28T07:14:30;7.43;;;2.25;;
38379;SDS011;38377;47.418;18.882;2023-07-28T07:16:56;3.63;;;1.70;;
38379;SDS011;38377;47.418;18.882;2023-07-28T07:19:22;3.35;;;2.00;;
38379;SDS011;38377;47.418;18.882;2023-07-28T07:21:47;3.78;;;2.10;;
38379;SDS011;38377;47.418;18.882;2023-07-28T07:24:14;2.70;;;1.65;;
38379;SDS011;38377;47.418;18.882;2023-07-28T07:26:40;7.97;;;1.88;;
38379;SDS011;38377;47.418;18.882;2023-07-28T07:29:06;2.30;;;1.85;;
38379;SDS011;38377;47.418;18.882;2023-07-28T07:31:33;2.70;;;2.03;;
38379;SDS011;38377;47.418;18.882;2023-07-28T07:33:59;2.22;;;1.75;;
38379;SDS011;38377;47.418;18.882;2023-07-28T07:36:25;2.22;;;1.92;;
38379;SDS011;38377;47.418;18.882;2023-07-28T07:38:50;14.50;;;2.83;;
38379;SDS011;38377;47.418;18.882;2023-07-28T07:41:16;2.30;;;2.00;;
38379;SDS011;38377;47.418;18.882;2023-07-28T07:43:46;2.78;;;1.85;;
38379;SDS011;38377;47.418;18.882;2023-07-28T07:46:17;4.28;;;2.00;;
38379;SDS011;38377;47.418;18.882;2023-07-28T07:48:44;2.53;;;2.10;;
38379;SDS011;38377;47.418;18.882;2023-07-28T07:51:10;2.10;;;1.27;;
38379;SDS011;38377;47.418;18.882;2023-07-28T07:53:36;2.38;;;1.58;;
38379;SDS011;38377;47.418;18.882;2023-07-28T07:56:05;2.20;;;1.80;;
38379;SDS011;38377;47.418;18.882;2023-07-28T07:58:32;30.95;;;4.32;;
38379;SDS011;38377;47.418;18.882;2023-07-28T08:00:59;3.42;;;1.95;;
38379;SDS011;38377;47.418;18.882;2023-07-28T08:03:24;3.17;;;1.77;;
38379;SDS011;38377;47.418;18.882;2023-07-28T08:05:50;5.18;;;1.90;;
38379;SDS011;38377;47.418;18.882;2023-07-28T08:08:17;3.00;;;1.75;;
38379;SDS011;38377;47.418;18.882;2023-07-28T08:10:44;2.20;;;1.83;;
38379;SDS011;38377;47.418;18.882;2023-07-28T08:13:14;4.45;;;2.10;;
38379;SDS011;38377;47.418;18.882;2023-07-28T08:15:40;2.42;;;1.88;;
38379;SDS011;38377;47.418;18.882;2023-07-28T08:18:07;2.65;;;1.92;;
38379;SDS011;38377;47.418;18.882;2023-07-28T08:20:33;2.60;;;1.83;;
38379;SDS011;38377;47.418;18.882;2023-07-28T08:22:59;1.60;;;1.45;;
38379;SDS011;38377;47.418;18.882;2023-07-28T08:25:24;2.78;;;1.60;;
38379;SDS011;38377;47.418;18.882;2023-07-28T08:27:50;2.83;;;1.70;;
38379;SDS011;38377;47.418;18.882;2023-07-28T08:30:16;2.80;;;1.63;;
38379;SDS011;38377;47.418;18.882;2023-07-28T08:32:42;2.30;;;1.92;;
38379;SDS011;38377;47.418;18.882;2023-07-28T08:35:08;2.47;;;1.77;;
38379;SDS011;38377;47.418;18.882;2023-07-28T08:37:34;2.58;;;1.48;;
38379;SDS011;38377;47.418;18.882;2023-07-28T08:40:00;2.83;;;2.03;;
38379;SDS011;38377;47.418;18.882;2023-07-28T08:42:28;1.80;;;1.52;;
38379;SDS011;38377;47.418;18.882;2023-07-28T08:44:55;1.73;;;1.58;;
38379;SDS011;38377;47.418;18.882;2023-07-28T08:47:20;1.95;;;1.75;;
38379;SDS011;38377;47.418;18.882;2023-07-28T08:49:46;2.40;;;1.52;;
38379;SDS011;38377;47.418;18.882;2023-07-28T08:52:15;4.82;;;2.00;;
38379;SDS011;38377;47.418;18.882;2023-07-28T08:54:41;3.03;;;1.63;;
38379;SDS011;38377;47.418;18.882;2023-07-28T08:57:08;11.60;;;2.58;;
38379;SDS011;38377;47.418;18.882;2023-07-28T08:59:34;4.10;;;1.88;;
38379;SDS011;38377;47.418;18.882;2023-07-28T09:02:01;2.58;;;1.60;;
38379;SDS011;38377;47.418;18.882;2023-07-28T09:04:27;2.63;;;1.55;;
38379;SDS011;38377;47.418;18.882;2023-07-28T09:06:53;2.30;;;1.50;;
38379;SDS011;38377;47.418;18.882;2023-07-28T09:09:20;2.15;;;1.65;;
38379;SDS011;38377;47.418;18.882;2023-07-28T09:11:48;3.72;;;1.80;;
38379;SDS011;38377;47.418;18.882;2023-07-28T09:14:19;3.03;;;1.80;;
38379;SDS011;38377;47.418;18.882;2023-07-28T09:16:46;3.35;;;2.15;;
38379;SDS011;38377;47.418;18.882;2023-07-28T09:19:13;2.03;;;1.60;;
38379;SDS011;38377;47.418;18.882;2023-07-28T09:21:39;2.83;;;1.92;;
38379;SDS011;38377;47.418;18.882;2023-07-28T09:24:11;3.00;;;1.58;;
38379;SDS011;38377;47.418;18.882;2023-07-28T09:26:38;2.20;;;2.00;;
38379;SDS011;38377;47.418;18.882;2023-07-28T09:29:17;2.35;;;1.70;;
38379;SDS011;38377;47.418;18.882;2023-07-28T09:31:45;2.80;;;1.60;;
38379;SDS011;38377;47.418;18.882;2023-07-28T09:34:11;2.20;;;1.88;;
38379;SDS011;38377;47.418;18.882;2023-07-28T09:36:47;1.90;;;1.63;;
38379;SDS011;38377;47.418;18.882;2023-07-28T09:39:14;6.18;;;2.22;;
38379;SDS011;38377;47.418;18.882;2023-07-28T09:41:40;2.00;;;1.50;;
38379;SDS011;38377;47.418;18.882;2023-07-28T09:44:05;2.97;;;1.65;;
38379;SDS011;38377;47.418;18.882;2023-07-28T09:46:34;2.30;;;1.55;;
38379;SDS011;38377;47.418;18.882;2023-07-28T09:49:10;10.38;;;2.13;;
38379;SDS011;38377;47.418;18.882;2023-07-28T09:51:39;4.00;;;1.40;;
38379;SDS011;38377;47.418;18.882;2023-07-28T09:54:12;3.17;;;1.95;;
38379;SDS011;38377;47.418;18.882;2023-07-28T09:56:44;1.98;;;1.63;;
38379;SDS011;38377;47.418;18.882;2023-07-28T09:59:12;1.98;;;1.70;;
38379;SDS011;38377;47.418;18.882;2023-07-28T10:01:39;1.95;;;1.55;;
38379;SDS011;38377;47.418;18.882;2023-07-28T10:04:05;1.98;;;1.73;;
38379;SDS011;38377;47.418;18.882;2023-07-28T10:06:32;2.45;;;1.60;;
38379;SDS011;38377;47.418;18.882;2023-07-28T10:08:58;2.33;;;1.73;;
38379;SDS011;38377;47.418;18.882;2023-07-28T10:11:24;6.50;;;2.22;;
38379;SDS011;38377;47.418;18.882;2023-07-28T10:13:53;2.20;;;1.52;;
38379;SDS011;38377;47.418;18.882;2023-07-28T10:16:19;2.40;;;1.52;;
38379;SDS011;38377;47.418;18.882;2023-07-28T10:18:55;2.58;;;1.63;;
38379;SDS011;38377;47.418;18.882;2023-07-28T10:21:20;1.80;;;1.60;;
38379;SDS011;38377;47.418;18.882;2023-07-28T10:23:53;4.35;;;1.60;;
38379;SDS011;38377;47.418;18.882;2023-07-28T10:26:41;3.28;;;1.70;;
38379;SDS011;38377;47.418;18.882;2023-07-28T10:29:10;2.60;;;1.80;;
38379;SDS011;38377;47.418;18.882;2023-07-28T10:31:38;1.88;;;1.67;;
38379;SDS011;38377;47.418;18.882;2023-07-28T10:34:18;3.63;;;2.03;;
38379;SDS011;38377;47.418;18.882;2023-07-28T10:36:44;2.50;;;1.80;;
38379;SDS011;38377;47.418;18.882;2023-07-28T10:39:14;3.25;;;1.80;;
38379;SDS011;38377;47.418;18.882;2023-07-28T10:44:25;5.60;;;1.80;;
38379;SDS011;38377;47.418;18.882;2023-07-28T10:46:51;3.13;;;1.98;;
38379;SDS011;38377;47.418;18.882;2023-07-28T10:49:17;6.25;;;2.00;;
38379;SDS011;38377;47.418;18.882;2023-07-28T10:51:42;2.38;;;2.17;;
38379;SDS011;38377;47.418;18.882;2023-07-28T10:54:08;2.33;;;1.90;;
38379;SDS011;38377;47.418;18.882;2023-07-28T10:56:33;2.30;;;1.70;;
38379;SDS011;38377;47.418;18.882;2023-07-28T10:59:00;1.90;;;1.70;;
38379;SDS011;38377;47.418;18.882;2023-07-28T11:01:38;3.20;;;1.63;;
38379;SDS011;38377;47.418;18.882;2023-07-28T11:04:19;2.92;;;1.65;;
38379;SDS011;38377;47.418;18.882;2023-07-28T11:06:48;2.92;;;1.52;;
38379;SDS011;38377;47.418;18.882;2023-07-28T11:09:19;1.83;;;1.27;;
38379;SDS011;38377;47.418;18.882;2023-07-28T11:11:48;3.40;;;1.60;;
38379;SDS011;38377;47.418;18.882;2023-07-28T11:14:15;4.57;;;1.88;;
38379;SDS011;38377;47.418;18.882;2023-07-28T11:16:42;8.95;;;2.28;;
38379;SDS011;38377;47.418;18.882;2023-07-28T11:19:10;2.53;;;1.70;;
38379;SDS011;38377;47.418;18.882;2023-07-28T11:21:37;3.25;;;1.38;;
38379;SDS011;38377;47.418;18.882;2023-07-28T11:24:04;1.92;;;1.73;;
38379;SDS011;38377;47.418;18.882;2023-07-28T11:26:31;3.10;;;1.83;;
38379;SDS011;38377;47.418;18.882;2023-07-28T11:28:59;2.05;;;1.52;;
38379;SDS011;38377;47.418;18.882;2023-07-28T11:31:25;2.40;;;1.65;;
38379;SDS011;38377;47.418;18.882;2023-07-28T11:33:51;1.65;;;1.52;;
38379;SDS011;38377;47.418;18.882;2023-07-28T11:36:26;13.35;;;2.95;;
38379;SDS011;38377;47.418;18.882;2023-07-28T11:38:54;2.70;;;1.65;;
38379;SDS011;38377;47.418;18.882;2023-07-28T11:41:22;4.63;;;1.73;;
38379;SDS011;38377;47.418;18.882;2023-07-28T11:43:48;2.90;;;1.73;;
38379;SDS011;38377;47.418;18.882;2023-07-28T11:46:34;2.10;;;1.90;;
38379;SDS011;38377;47.418;18.882;2023-07-28T11:51:40;2.50;;;1.90;;
38379;SDS011;38377;47.418;18.882;2023-07-28T11:54:10;2.15;;;1.92;;
38379;SDS011;38377;47.418;18.882;2023-07-28T11:56:37;4.90;;;2.13;;
38379;SDS011;38377;47.418;18.882;2023-07-28T11:59:03;4.45;;;1.75;;
38379;SDS011;38377;47.418;18.882;2023-07-28T12:01:29;4.05;;;1.70;;
38379;SDS011;38377;47.418;18.882;2023-07-28T12:03:55;2.97;;;1.58;;
38379;SDS011;38377;47.418;18.882;2023-07-28T12:06:20;2.35;;;1.75;;
38379;SDS011;38377;47.418;18.882;2023-07-28T12:08:46;2.13;;;1.90;;
38379;SDS011;38377;47.418;18.882;2023-07-28T12:11:13;2.85;;;1.80;;
38379;SDS011;38377;47.418;18.882;2023-07-28T12:13:51;3.80;;;1.83;;
38379;SDS011;38377;47.418;18.882;2023-07-28T12:16:37;2.33;;;1.75;;
38379;SDS011;38377;47.418;18.882;2023-07-28T12:19:05;2.83;;;1.50;;
38379;SDS011;38377;47.418;18.882;2023-07-28T12:21:31;1.63;;;1.50;;
38379;SDS011;38377;47.418;18.882;2023-07-28T12:23:57;2.03;;;1.38;;
38379;SDS011;38377;47.418;18.882;2023-07-28T12:26:23;3.08;;;1.73;;
38379;SDS011;38377;47.418;18.882;2023-07-28T12:28:49;1.98;;;1.40;;
38379;SDS011;38377;47.418;18.882;2023-07-28T12:31:14;5.68;;;1.77;;
38379;SDS011;38377;47.418;18.882;2023-07-28T12:33:40;2.13;;;1.45;;
38379;SDS011;38377;47.418;18.882;2023-07-28T12:36:05;2.58;;;1.35;;
38379;SDS011;38377;47.418;18.882;2023-07-28T12:38:31;2.38;;;1.77;;
38379;SDS011;38377;47.418;18.882;2023-07-28T12:40:57;4.47;;;1.92;;
38379;SDS011;38377;47.418;18.882;2023-07-28T12:43:23;3.83;;;1.52;;
38379;SDS011;38377;47.418;18.882;2023-07-28T12:45:50;10.88;;;2.75;;
38379;SDS011;38377;47.418;18.882;2023-07-28T12:48:16;2.03;;;1.45;;
38379;SDS011;38377;47.418;18.882;2023-07-28T12:50:42;4.82;;;1.77;;
38379;SDS011;38377;47.418;18.882;2023-07-28T12:53:08;1.90;;;1.52;;
38379;SDS011;38377;47.418;18.882;2023-07-28T12:55:33;3.17;;;1.52;;
38379;SDS011;38377;47.418;18.882;2023-07-28T12:58:00;30.02;;;4.93;;
38379;SDS011;38377;47.418;18.882;2023-07-28T13:00:26;4.90;;;1.58;;
38379;SDS011;38377;47.418;18.882;2023-07-28T13:02:51;3.58;;;1.70;;
38379;SDS011;38377;47.418;18.882;2023-07-28T13:05:17;15.45;;;3.55;;
38379;SDS011;38377;47.418;18.882;2023-07-28T13:07:43;6.70;;;1.67;;
38379;SDS011;38377;47.418;18.882;2023-07-28T13:10:09;2.70;;;2.00;;
38379;SDS011;38377;47.418;18.882;2023-07-28T13:12:36;2.42;;;1.65;;
38379;SDS011;38377;47.418;18.882;2023-07-28T13:15:02;2.95;;;1.77;;
38379;SDS011;38377;47.418;18.882;2023-07-28T13:17:28;2.03;;;1.83;;
38379;SDS011;38377;47.418;18.882;2023-07-28T13:19:54;3.60;;;1.88;;
38379;SDS011;38377;47.418;18.882;2023-07-28T13:22:22;2.38;;;1.77;;
38379;SDS011;38377;47.418;18.882;2023-07-28T13:24:48;3.15;;;1.75;;
38379;SDS011;38377;47.418;18.882;2023-07-28T13:27:13;3.47;;;1.70;;
38379;SDS011;38377;47.418;18.882;2023-07-28T13:29:39;4.90;;;1.83;;
38379;SDS011;38377;47.418;18.882;2023-07-28T13:32:13;2.22;;;1.80;;
38379;SDS011;38377;47.418;18.882;2023-07-28T13:34:43;1.95;;;1.75;;
38379;SDS011;38377;47.418;18.882;2023-07-28T13:37:09;2.10;;;1.65;;
38379;SDS011;38377;47.418;18.882;2023-07-28T13:39:35;2.78;;;1.70;;
38379;SDS011;38377;47.418;18.882;2023-07-28T13:42:01;2.95;;;2.20;;
38379;SDS011;38377;47.418;18.882;2023-07-28T13:44:26;4.18;;;1.95;;
38379;SDS011;38377;47.418;18.882;2023-07-28T13:46:52;3.05;;;1.70;;
38379;SDS011;38377;47.418;18.882;2023-07-28T13:49:18;2.35;;;1.88;;
38379;SDS011;38377;47.418;18.882;2023-07-28T13:51:43;10.20;;;2.17;;
38379;SDS011;38377;47.418;18.882;2023-07-28T13:54:09;5.85;;;2.00;;
38379;SDS011;38377;47.418;18.882;2023-07-28T13:57:14;2.90;;;1.83;;
38379;SDS011;38377;47.418;18.882;2023-07-28T13:59:40;2.97;;;1.60;;
38379;SDS011;38377;47.418;18.882;2023-07-28T14:02:05;3.80;;;1.95;;
38379;SDS011;38377;47.418;18.882;2023-07-28T14:04:31;2.85;;;1.80;;
38379;SDS011;38377;47.418;18.882;2023-07-28T14:06:57;6.22;;;1.98;;
38379;SDS011;38377;47.418;18.882;2023-07-28T14:09:23;4.95;;;2.40;;
38379;SDS011;38377;47.418;18.882;2023-07-28T14:11:49;2.10;;;1.90;;
38379;SDS011;38377;47.418;18.882;2023-07-28T14:14:19;8.02;;;1.90;;
38379;SDS011;38377;47.418;18.882;2023-07-28T14:16:45;2.50;;;1.90;;
38379;SDS011;38377;47.418;18.882;2023-07-28T14:19:10;5.20;;;2.10;;
38379;SDS011;38377;47.418;18.882;2023-07-28T14:21:36;8.07;;;2.60;;
38379;SDS011;38377;47.418;18.882;2023-07-28T14:24:03;4.53;;;1.98;;
38379;SDS011;38377;47.418;18.882;2023-07-28T14:26:30;4.45;;;2.25;;
38379;SDS011;38377;47.418;18.882;2023-07-28T14:28:56;2.92;;;2.05;;
38379;SDS011;38377;47.418;18.882;2023-07-28T14:31:22;3.60;;;1.90;;
38379;SDS011;38377;47.418;18.882;2023-07-28T14:33:47;2.83;;;1.70;;
38379;SDS011;38377;47.418;18.882;2023-07-28T14:36:13;5.75;;;1.80;;
38379;SDS011;38377;47.418;18.882;2023-07-28T14:38:38;2.60;;;1.80;;
38379;SDS011;38377;47.418;18.882;2023-07-28T14:41:04;2.97;;;1.40;;
38379;SDS011;38377;47.418;18.882;2023-07-28T14:43:30;3.10;;;1.83;;